sensor_id;sensor_type;location;lat;lon;timestamp;P1;durP1;ratioP1;P2;durP2;ratioP2
44704;SDS011;30431;48.520;9.046;2023-06-22T00:03:52;10.95;;;7.30;;
44704;SDS011;30431;48.520;9.046;2023-06-22T00:11:13;10.70;;;6.88;;
44704;SDS011;30431;48.520;9.046;2023-06-22T00:13:42;9.73;;;7.10;;
44704;SDS011;30431;48.520;9.046;2023-06-22T00:16:09;9.23;;;6.82;;
44704;SDS011;30431;48.520;9.046;2023-06-22T00:18:36;12.20;;;7.10;;
44704;SDS011;30431;48.520;9.046;2023-06-22T00:21:05;12.35;;;7.43;;
44704;SDS011;30431;48.520;9.046;2023-06-22T00:23:33;13.05;;;7.55;;
44704;SDS011;30431;48.520;9.046;2023-06-22T00:26:01;12.23;;;7.05;;
44704;SDS011;30431;48.520;9.046;2023-06-22T00:28:29;11.68;;;7.80;;
44704;SDS011;30431;48.520;9.046;2023-06-22T00:30:59;12.93;;;7.47;;
44704;SDS011;30431;48.520;9.046;2023-06-22T00:33:26;9.48;;;7.28;;
44704;SDS011;30431;48.520;9.046;2023-06-22T00:35:59;10.85;;;7.20;;
44704;SDS011;30431;48.520;9.046;2023-06-22T00:38:26;12.30;;;7.85;;
44704;SDS011;30431;48.520;9.046;2023-06-22T00:40:55;12.40;;;8.68;;
44704;SDS011;30431;48.520;9.046;2023-06-22T00:43:22;12.55;;;7.43;;
44704;SDS011;30431;48.520;9.046;2023-06-22T00:45:51;9.98;;;7.43;;
44704;SDS011;30431;48.520;9.046;2023-06-22T00:48:22;9.38;;;7.35;;
44704;SDS011;30431;48.520;9.046;2023-06-22T00:53:17;11.40;;;7.38;;
44704;SDS011;30431;48.520;9.046;2023-06-22T00:55:49;12.73;;;8.35;;
44704;SDS011;30431;48.520;9.046;2023-06-22T00:58:19;13.40;;;7.95;;
44704;SDS011;30431;48.520;9.046;2023-06-22T01:00:51;12.18;;;8.10;;
44704;SDS011;30431;48.520;9.046;2023-06-22T01:03:18;12.00;;;8.65;;
44704;SDS011;30431;48.520;9.046;2023-06-22T01:05:47;10.55;;;7.82;;
44704;SDS011;30431;48.520;9.046;2023-06-22T01:08:24;15.07;;;8.73;;
44704;SDS011;30431;48.520;9.046;2023-06-22T01:11:09;14.07;;;8.30;;
44704;SDS011;30431;48.520;9.046;2023-06-22T01:13:45;13.60;;;8.18;;
44704;SDS011;30431;48.520;9.046;2023-06-22T01:16:18;13.35;;;8.35;;
44704;SDS011;30431;48.520;9.046;2023-06-22T01:18:52;20.00;;;8.50;;
44704;SDS011;30431;48.520;9.046;2023-06-22T01:21:22;12.13;;;8.15;;
44704;SDS011;30431;48.520;9.046;2023-06-22T01:27:01;14.82;;;9.05;;
44704;SDS011;30431;48.520;9.046;2023-06-22T01:29:55;12.73;;;9.00;;
44704;SDS011;30431;48.520;9.046;2023-06-22T01:32:28;14.65;;;8.80;;
44704;SDS011;30431;48.520;9.046;2023-06-22T01:35:00;14.52;;;8.45;;
44704;SDS011;30431;48.520;9.046;2023-06-22T01:37:32;15.55;;;8.75;;
44704;SDS011;30431;48.520;9.046;2023-06-22T01:40:03;11.93;;;8.18;;
44704;SDS011;30431;48.520;9.046;2023-06-22T01:42:37;12.02;;;8.10;;
44704;SDS011;30431;48.520;9.046;2023-06-22T01:45:06;11.18;;;8.05;;
44704;SDS011;30431;48.520;9.046;2023-06-22T01:47:33;10.25;;;8.27;;
44704;SDS011;30431;48.520;9.046;2023-06-22T01:50:03;13.40;;;8.52;;
44704;SDS011;30431;48.520;9.046;2023-06-22T01:52:32;11.80;;;8.38;;
44704;SDS011;30431;48.520;9.046;2023-06-22T01:55:00;11.43;;;8.90;;
44704;SDS011;30431;48.520;9.046;2023-06-22T01:57:27;14.93;;;8.50;;
44704;SDS011;30431;48.520;9.046;2023-06-22T02:02:29;13.27;;;9.38;;
44704;SDS011;30431;48.520;9.046;2023-06-22T02:05:04;12.18;;;8.90;;
44704;SDS011;30431;48.520;9.046;2023-06-22T02:07:34;12.23;;;9.18;;
44704;SDS011;30431;48.520;9.046;2023-06-22T02:10:08;9.73;;;7.72;;
44704;SDS011;30431;48.520;9.046;2023-06-22T02:12:38;10.95;;;8.90;;
44704;SDS011;30431;48.520;9.046;2023-06-22T02:15:08;12.35;;;8.85;;
44704;SDS011;30431;48.520;9.046;2023-06-22T02:17:36;10.32;;;7.93;;
44704;SDS011;30431;48.520;9.046;2023-06-22T02:20:04;10.70;;;8.48;;
44704;SDS011;30431;48.520;9.046;2023-06-22T02:22:35;10.95;;;8.45;;
44704;SDS011;30431;48.520;9.046;2023-06-22T02:25:04;13.35;;;8.68;;
44704;SDS011;30431;48.520;9.046;2023-06-22T02:27:31;12.38;;;9.25;;
44704;SDS011;30431;48.520;9.046;2023-06-22T02:29:58;11.40;;;8.93;;
44704;SDS011;30431;48.520;9.046;2023-06-22T02:32:25;10.85;;;8.40;;
44704;SDS011;30431;48.520;9.046;2023-06-22T02:34:54;10.90;;;8.65;;
44704;SDS011;30431;48.520;9.046;2023-06-22T02:37:24;10.32;;;8.80;;
44704;SDS011;30431;48.520;9.046;2023-06-22T02:39:56;10.75;;;8.20;;
44704;SDS011;30431;48.520;9.046;2023-06-22T02:42:23;13.90;;;8.48;;
44704;SDS011;30431;48.520;9.046;2023-06-22T02:44:52;14.98;;;8.55;;
44704;SDS011;30431;48.520;9.046;2023-06-22T02:47:21;13.85;;;9.00;;
44704;SDS011;30431;48.520;9.046;2023-06-22T02:49:49;9.60;;;8.18;;
44704;SDS011;30431;48.520;9.046;2023-06-22T02:52:18;13.15;;;8.68;;
44704;SDS011;30431;48.520;9.046;2023-06-22T02:54:45;11.48;;;8.55;;
44704;SDS011;30431;48.520;9.046;2023-06-22T02:57:14;10.68;;;8.18;;
44704;SDS011;30431;48.520;9.046;2023-06-22T02:59:42;11.98;;;8.43;;
44704;SDS011;30431;48.520;9.046;2023-06-22T03:02:12;11.50;;;8.50;;
44704;SDS011;30431;48.520;9.046;2023-06-22T03:04:41;12.80;;;8.25;;
44704;SDS011;30431;48.520;9.046;2023-06-22T03:07:09;11.48;;;8.43;;
44704;SDS011;30431;48.520;9.046;2023-06-22T03:09:37;12.80;;;8.40;;
44704;SDS011;30431;48.520;9.046;2023-06-22T03:12:06;11.70;;;8.90;;
44704;SDS011;30431;48.520;9.046;2023-06-22T03:14:45;10.93;;;8.48;;
44704;SDS011;30431;48.520;9.046;2023-06-22T03:17:14;12.55;;;8.73;;
44704;SDS011;30431;48.520;9.046;2023-06-22T03:22:11;11.07;;;9.10;;
44704;SDS011;30431;48.520;9.046;2023-06-22T03:24:42;11.55;;;8.20;;
44704;SDS011;30431;48.520;9.046;2023-06-22T03:27:12;12.52;;;9.13;;
44704;SDS011;30431;48.520;9.046;2023-06-22T03:29:39;12.88;;;9.25;;
44704;SDS011;30431;48.520;9.046;2023-06-22T03:32:06;16.77;;;9.68;;
44704;SDS011;30431;48.520;9.046;2023-06-22T03:34:35;18.35;;;10.52;;
44704;SDS011;30431;48.520;9.046;2023-06-22T03:37:03;13.25;;;8.80;;
44704;SDS011;30431;48.520;9.046;2023-06-22T03:39:31;14.00;;;9.40;;
44704;SDS011;30431;48.520;9.046;2023-06-22T03:41:59;16.35;;;9.60;;
44704;SDS011;30431;48.520;9.046;2023-06-22T03:44:26;19.83;;;8.95;;
44704;SDS011;30431;48.520;9.046;2023-06-22T03:46:53;22.77;;;10.23;;
44704;SDS011;30431;48.520;9.046;2023-06-22T03:49:20;18.27;;;9.85;;
44704;SDS011;30431;48.520;9.046;2023-06-22T03:51:47;20.15;;;9.57;;
44704;SDS011;30431;48.520;9.046;2023-06-22T03:54:14;25.83;;;10.45;;
44704;SDS011;30431;48.520;9.046;2023-06-22T03:56:42;19.13;;;9.80;;
44704;SDS011;30431;48.520;9.046;2023-06-22T03:59:09;22.23;;;10.25;;
44704;SDS011;30431;48.520;9.046;2023-06-22T04:01:38;13.93;;;9.85;;
44704;SDS011;30431;48.520;9.046;2023-06-22T04:04:10;25.42;;;10.40;;
44704;SDS011;30431;48.520;9.046;2023-06-22T04:09:07;18.70;;;10.63;;
44704;SDS011;30431;48.520;9.046;2023-06-22T04:11:35;15.30;;;10.27;;
44704;SDS011;30431;48.520;9.046;2023-06-22T04:14:02;20.75;;;9.80;;
44704;SDS011;30431;48.520;9.046;2023-06-22T04:16:29;18.13;;;9.55;;
44704;SDS011;30431;48.520;9.046;2023-06-22T04:19:03;19.92;;;10.43;;
44704;SDS011;30431;48.520;9.046;2023-06-22T04:21:30;19.50;;;9.90;;
44704;SDS011;30431;48.520;9.046;2023-06-22T04:23:59;18.73;;;10.35;;
44704;SDS011;30431;48.520;9.046;2023-06-22T04:26:26;20.80;;;9.48;;
44704;SDS011;30431;48.520;9.046;2023-06-22T04:28:56;19.30;;;10.18;;
44704;SDS011;30431;48.520;9.046;2023-06-22T04:31:23;15.63;;;9.40;;
44704;SDS011;30431;48.520;9.046;2023-06-22T04:33:59;17.27;;;9.50;;
44704;SDS011;30431;48.520;9.046;2023-06-22T04:36:36;16.38;;;8.38;;
44704;SDS011;30431;48.520;9.046;2023-06-22T04:39:08;20.30;;;9.32;;
44704;SDS011;30431;48.520;9.046;2023-06-22T04:41:39;16.98;;;9.27;;
44704;SDS011;30431;48.520;9.046;2023-06-22T04:46:36;16.20;;;9.68;;
44704;SDS011;30431;48.520;9.046;2023-06-22T04:49:05;14.70;;;9.48;;
44704;SDS011;30431;48.520;9.046;2023-06-22T04:51:39;14.07;;;8.90;;
44704;SDS011;30431;48.520;9.046;2023-06-22T04:54:08;13.45;;;8.55;;
44704;SDS011;30431;48.520;9.046;2023-06-22T04:56:35;12.38;;;8.55;;
44704;SDS011;30431;48.520;9.046;2023-06-22T04:59:03;19.17;;;8.32;;
44704;SDS011;30431;48.520;9.046;2023-06-22T05:01:36;11.98;;;8.30;;
44704;SDS011;30431;48.520;9.046;2023-06-22T05:04:05;16.58;;;8.95;;
44704;SDS011;30431;48.520;9.046;2023-06-22T05:06:35;12.88;;;8.70;;
44704;SDS011;30431;48.520;9.046;2023-06-22T05:09:06;17.17;;;9.52;;
44704;SDS011;30431;48.520;9.046;2023-06-22T05:11:36;18.05;;;8.85;;
44704;SDS011;30431;48.520;9.046;2023-06-22T05:16:31;13.50;;;8.63;;
44704;SDS011;30431;48.520;9.046;2023-06-22T05:18:58;10.65;;;8.65;;
44704;SDS011;30431;48.520;9.046;2023-06-22T05:23:53;14.90;;;9.35;;
44704;SDS011;30431;48.520;9.046;2023-06-22T05:26:29;15.70;;;8.57;;
44704;SDS011;30431;48.520;9.046;2023-06-22T05:28:57;19.30;;;9.02;;
44704;SDS011;30431;48.520;9.046;2023-06-22T05:34:18;14.43;;;8.93;;
44704;SDS011;30431;48.520;9.046;2023-06-22T05:36:48;12.90;;;8.70;;
44704;SDS011;30431;48.520;9.046;2023-06-22T05:39:17;14.95;;;8.63;;
44704;SDS011;30431;48.520;9.046;2023-06-22T05:41:44;13.52;;;8.43;;
44704;SDS011;30431;48.520;9.046;2023-06-22T05:44:12;14.98;;;8.30;;
44704;SDS011;30431;48.520;9.046;2023-06-22T05:46:40;13.00;;;8.57;;
44704;SDS011;30431;48.520;9.046;2023-06-22T05:49:15;16.48;;;9.80;;
44704;SDS011;30431;48.520;9.046;2023-06-22T05:51:42;15.27;;;8.73;;
44704;SDS011;30431;48.520;9.046;2023-06-22T05:54:09;13.77;;;9.13;;
44704;SDS011;30431;48.520;9.046;2023-06-22T05:56:40;12.15;;;8.45;;
44704;SDS011;30431;48.520;9.046;2023-06-22T05:59:09;16.80;;;8.50;;
44704;SDS011;30431;48.520;9.046;2023-06-22T06:01:36;16.83;;;8.50;;
44704;SDS011;30431;48.520;9.046;2023-06-22T06:04:03;16.55;;;9.15;;
44704;SDS011;30431;48.520;9.046;2023-06-22T06:06:31;14.63;;;8.43;;
44704;SDS011;30431;48.520;9.046;2023-06-22T06:08:58;13.05;;;8.40;;
44704;SDS011;30431;48.520;9.046;2023-06-22T06:11:26;17.52;;;8.82;;
44704;SDS011;30431;48.520;9.046;2023-06-22T06:13:56;16.23;;;8.73;;
44704;SDS011;30431;48.520;9.046;2023-06-22T06:16:23;9.90;;;7.72;;
44704;SDS011;30431;48.520;9.046;2023-06-22T06:23:44;13.00;;;7.28;;
44704;SDS011;30431;48.520;9.046;2023-06-22T06:28:38;15.40;;;7.20;;
44704;SDS011;30431;48.520;9.046;2023-06-22T06:31:12;12.07;;;7.18;;
44704;SDS011;30431;48.520;9.046;2023-06-22T06:33:43;11.07;;;7.55;;
44704;SDS011;30431;48.520;9.046;2023-06-22T06:36:12;9.77;;;7.32;;
44704;SDS011;30431;48.520;9.046;2023-06-22T06:38:39;13.65;;;7.20;;
44704;SDS011;30431;48.520;9.046;2023-06-22T06:41:09;10.15;;;6.82;;
44704;SDS011;30431;48.520;9.046;2023-06-22T06:43:36;11.68;;;7.15;;
44704;SDS011;30431;48.520;9.046;2023-06-22T06:46:05;12.77;;;6.57;;
44704;SDS011;30431;48.520;9.046;2023-06-22T06:48:32;10.38;;;7.25;;
44704;SDS011;30431;48.520;9.046;2023-06-22T06:50:59;9.07;;;5.75;;
44704;SDS011;30431;48.520;9.046;2023-06-22T06:53:26;11.85;;;6.85;;
44704;SDS011;30431;48.520;9.046;2023-06-22T06:55:56;12.45;;;6.43;;
44704;SDS011;30431;48.520;9.046;2023-06-22T06:58:23;12.23;;;5.97;;
44704;SDS011;30431;48.520;9.046;2023-06-22T07:00:50;12.35;;;6.70;;
44704;SDS011;30431;48.520;9.046;2023-06-22T07:03:19;9.45;;;5.90;;
44704;SDS011;30431;48.520;9.046;2023-06-22T07:05:46;13.32;;;6.35;;
44704;SDS011;30431;48.520;9.046;2023-06-22T07:10:40;11.65;;;6.43;;
44704;SDS011;30431;48.520;9.046;2023-06-22T07:13:09;9.40;;;5.93;;
44704;SDS011;30431;48.520;9.046;2023-06-22T07:18:03;12.43;;;6.18;;
44704;SDS011;30431;48.520;9.046;2023-06-22T07:23:01;10.50;;;5.22;;
44704;SDS011;30431;48.520;9.046;2023-06-22T07:25:28;10.52;;;5.50;;
44704;SDS011;30431;48.520;9.046;2023-06-22T07:28:02;9.10;;;5.53;;
44704;SDS011;30431;48.520;9.046;2023-06-22T07:30:30;16.73;;;6.03;;
44704;SDS011;30431;48.520;9.046;2023-06-22T07:33:00;8.30;;;5.70;;
44704;SDS011;30431;48.520;9.046;2023-06-22T07:35:30;10.52;;;5.20;;
44704;SDS011;30431;48.520;9.046;2023-06-22T07:38:03;12.38;;;5.53;;
44704;SDS011;30431;48.520;9.046;2023-06-22T07:40:32;13.00;;;5.97;;
44704;SDS011;30431;48.520;9.046;2023-06-22T07:43:00;11.95;;;5.30;;
44704;SDS011;30431;48.520;9.046;2023-06-22T07:45:32;12.82;;;5.63;;
44704;SDS011;30431;48.520;9.046;2023-06-22T07:48:01;9.38;;;5.15;;
44704;SDS011;30431;48.520;9.046;2023-06-22T07:52:56;10.15;;;5.13;;
44704;SDS011;30431;48.520;9.046;2023-06-22T07:57:49;12.73;;;5.53;;
44704;SDS011;30431;48.520;9.046;2023-06-22T08:00:18;10.98;;;5.47;;
44704;SDS011;30431;48.520;9.046;2023-06-22T08:02:46;11.60;;;5.20;;
44704;SDS011;30431;48.520;9.046;2023-06-22T08:05:14;10.77;;;5.70;;
44704;SDS011;30431;48.520;9.046;2023-06-22T08:08:02;10.40;;;5.55;;
44704;SDS011;30431;48.520;9.046;2023-06-22T08:10:29;11.88;;;5.28;;
44704;SDS011;30431;48.520;9.046;2023-06-22T08:13:00;12.20;;;5.78;;
44704;SDS011;30431;48.520;9.046;2023-06-22T08:17:55;12.70;;;6.07;;
44704;SDS011;30431;48.520;9.046;2023-06-22T08:20:26;9.98;;;5.72;;
44704;SDS011;30431;48.520;9.046;2023-06-22T08:25:28;14.88;;;5.90;;
44704;SDS011;30431;48.520;9.046;2023-06-22T08:27:55;11.32;;;5.90;;
44704;SDS011;30431;48.520;9.046;2023-06-22T08:32:49;11.90;;;6.00;;
44704;SDS011;30431;48.520;9.046;2023-06-22T08:35:16;12.68;;;5.63;;
44704;SDS011;30431;48.520;9.046;2023-06-22T08:37:45;13.40;;;5.47;;
44704;SDS011;30431;48.520;9.046;2023-06-22T08:40:20;10.88;;;6.07;;
44704;SDS011;30431;48.520;9.046;2023-06-22T08:42:50;13.02;;;6.22;;
44704;SDS011;30431;48.520;9.046;2023-06-22T08:45:23;12.13;;;5.55;;
44704;SDS011;30431;48.520;9.046;2023-06-22T08:47:50;11.90;;;5.78;;
44704;SDS011;30431;48.520;9.046;2023-06-22T08:50:19;11.27;;;5.57;;
44704;SDS011;30431;48.520;9.046;2023-06-22T08:52:49;12.00;;;5.78;;
44704;SDS011;30431;48.520;9.046;2023-06-22T08:55:15;11.10;;;6.25;;
44704;SDS011;30431;48.520;9.046;2023-06-22T08:57:43;14.32;;;6.18;;
44704;SDS011;30431;48.520;9.046;2023-06-22T09:00:10;13.98;;;6.20;;
44704;SDS011;30431;48.520;9.046;2023-06-22T09:02:44;14.60;;;6.20;;
44704;SDS011;30431;48.520;9.046;2023-06-22T09:05:15;15.85;;;6.20;;
44704;SDS011;30431;48.520;9.046;2023-06-22T09:07:44;16.70;;;5.45;;
44704;SDS011;30431;48.520;9.046;2023-06-22T09:10:12;11.15;;;5.65;;
44704;SDS011;30431;48.520;9.046;2023-06-22T09:12:39;12.75;;;6.55;;
44704;SDS011;30431;48.520;9.046;2023-06-22T09:15:09;9.75;;;5.75;;
44704;SDS011;30431;48.520;9.046;2023-06-22T09:17:42;21.85;;;7.05;;
44704;SDS011;30431;48.520;9.046;2023-06-22T09:20:10;19.73;;;6.50;;
44704;SDS011;30431;48.520;9.046;2023-06-22T09:22:39;10.73;;;5.85;;
44704;SDS011;30431;48.520;9.046;2023-06-22T09:25:06;19.60;;;7.75;;
44704;SDS011;30431;48.520;9.046;2023-06-22T09:27:34;13.73;;;6.72;;
44704;SDS011;30431;48.520;9.046;2023-06-22T09:30:06;12.20;;;6.13;;
44704;SDS011;30431;48.520;9.046;2023-06-22T09:32:35;11.40;;;6.00;;
44704;SDS011;30431;48.520;9.046;2023-06-22T09:35:03;12.73;;;5.75;;
44704;SDS011;30431;48.520;9.046;2023-06-22T09:37:38;12.25;;;5.78;;
44704;SDS011;30431;48.520;9.046;2023-06-22T09:40:07;11.50;;;6.22;;
44704;SDS011;30431;48.520;9.046;2023-06-22T09:42:41;12.73;;;6.70;;
44704;SDS011;30431;48.520;9.046;2023-06-22T09:45:09;12.10;;;5.80;;
44704;SDS011;30431;48.520;9.046;2023-06-22T09:47:36;12.95;;;5.70;;
44704;SDS011;30431;48.520;9.046;2023-06-22T09:50:04;9.85;;;5.75;;
44704;SDS011;30431;48.520;9.046;2023-06-22T09:52:32;12.80;;;5.70;;
44704;SDS011;30431;48.520;9.046;2023-06-22T09:55:13;12.20;;;5.85;;
44704;SDS011;30431;48.520;9.046;2023-06-22T09:57:42;14.18;;;5.93;;
44704;SDS011;30431;48.520;9.046;2023-06-22T10:00:12;12.05;;;6.25;;
44704;SDS011;30431;48.520;9.046;2023-06-22T10:02:42;13.10;;;5.82;;
44704;SDS011;30431;48.520;9.046;2023-06-22T10:05:14;12.93;;;5.93;;
44704;SDS011;30431;48.520;9.046;2023-06-22T10:07:41;14.30;;;5.75;;
44704;SDS011;30431;48.520;9.046;2023-06-22T10:10:11;10.45;;;5.30;;
44704;SDS011;30431;48.520;9.046;2023-06-22T10:12:45;13.00;;;5.65;;
44704;SDS011;30431;48.520;9.046;2023-06-22T10:15:14;10.60;;;5.85;;
44704;SDS011;30431;48.520;9.046;2023-06-22T10:17:44;11.20;;;5.60;;
44704;SDS011;30431;48.520;9.046;2023-06-22T10:20:14;13.07;;;6.28;;
44704;SDS011;30431;48.520;9.046;2023-06-22T10:22:45;14.73;;;6.22;;
44704;SDS011;30431;48.520;9.046;2023-06-22T10:25:16;12.48;;;5.85;;
44704;SDS011;30431;48.520;9.046;2023-06-22T10:27:44;12.43;;;5.65;;
44704;SDS011;30431;48.520;9.046;2023-06-22T10:30:14;12.85;;;5.65;;
44704;SDS011;30431;48.520;9.046;2023-06-22T10:32:41;10.25;;;5.68;;
44704;SDS011;30431;48.520;9.046;2023-06-22T10:35:11;13.82;;;6.40;;
44704;SDS011;30431;48.520;9.046;2023-06-22T10:37:40;11.10;;;5.80;;
44704;SDS011;30431;48.520;9.046;2023-06-22T10:40:09;12.25;;;5.35;;
44704;SDS011;30431;48.520;9.046;2023-06-22T10:42:41;12.60;;;5.38;;
44704;SDS011;30431;48.520;9.046;2023-06-22T10:45:08;16.42;;;6.28;;
44704;SDS011;30431;48.520;9.046;2023-06-22T10:47:36;10.18;;;5.38;;
44704;SDS011;30431;48.520;9.046;2023-06-22T10:50:03;10.95;;;6.25;;
44704;SDS011;30431;48.520;9.046;2023-06-22T10:52:31;12.35;;;7.80;;
44704;SDS011;30431;48.520;9.046;2023-06-22T10:54:58;13.30;;;5.95;;
44704;SDS011;30431;48.520;9.046;2023-06-22T10:57:27;10.43;;;5.55;;
44704;SDS011;30431;48.520;9.046;2023-06-22T10:59:54;10.80;;;5.55;;
44704;SDS011;30431;48.520;9.046;2023-06-22T11:02:24;10.23;;;6.10;;
44704;SDS011;30431;48.520;9.046;2023-06-22T11:04:51;13.27;;;5.65;;
44704;SDS011;30431;48.520;9.046;2023-06-22T11:07:18;8.77;;;5.28;;
44704;SDS011;30431;48.520;9.046;2023-06-22T11:09:46;9.95;;;6.93;;
44704;SDS011;30431;48.520;9.046;2023-06-22T11:12:12;16.83;;;6.03;;
44704;SDS011;30431;48.520;9.046;2023-06-22T11:14:42;12.27;;;6.10;;
44704;SDS011;30431;48.520;9.046;2023-06-22T11:17:11;11.73;;;5.70;;
44704;SDS011;30431;48.520;9.046;2023-06-22T11:19:38;10.43;;;6.00;;
44704;SDS011;30431;48.520;9.046;2023-06-22T11:22:05;14.02;;;5.72;;
44704;SDS011;30431;48.520;9.046;2023-06-22T11:24:32;15.98;;;6.10;;
44704;SDS011;30431;48.520;9.046;2023-06-22T11:26:59;11.52;;;5.85;;
44704;SDS011;30431;48.520;9.046;2023-06-22T11:29:26;10.40;;;5.50;;
44704;SDS011;30431;48.520;9.046;2023-06-22T11:32:04;13.13;;;6.00;;
44704;SDS011;30431;48.520;9.046;2023-06-22T11:34:33;13.40;;;6.00;;
44704;SDS011;30431;48.520;9.046;2023-06-22T11:37:00;9.57;;;5.68;;
44704;SDS011;30431;48.520;9.046;2023-06-22T11:39:27;12.52;;;5.95;;
44704;SDS011;30431;48.520;9.046;2023-06-22T11:42:08;17.23;;;6.38;;
44704;SDS011;30431;48.520;9.046;2023-06-22T11:44:42;10.50;;;5.55;;
44704;SDS011;30431;48.520;9.046;2023-06-22T11:47:11;15.13;;;5.97;;
44704;SDS011;30431;48.520;9.046;2023-06-22T11:49:38;10.35;;;5.97;;
44704;SDS011;30431;48.520;9.046;2023-06-22T11:52:07;10.35;;;5.53;;
44704;SDS011;30431;48.520;9.046;2023-06-22T11:54:35;12.98;;;5.70;;
44704;SDS011;30431;48.520;9.046;2023-06-22T11:57:02;10.63;;;5.72;;
44704;SDS011;30431;48.520;9.046;2023-06-22T11:59:29;10.85;;;6.03;;
44704;SDS011;30431;48.520;9.046;2023-06-22T12:01:57;11.40;;;5.75;;
44704;SDS011;30431;48.520;9.046;2023-06-22T12:04:29;15.70;;;6.10;;
44704;SDS011;30431;48.520;9.046;2023-06-22T12:06:56;10.43;;;5.97;;
44704;SDS011;30431;48.520;9.046;2023-06-22T12:09:25;13.55;;;5.80;;
44704;SDS011;30431;48.520;9.046;2023-06-22T12:11:52;17.13;;;5.95;;
44704;SDS011;30431;48.520;9.046;2023-06-22T12:14:21;11.68;;;6.18;;
44704;SDS011;30431;48.520;9.046;2023-06-22T12:16:53;14.23;;;6.20;;
44704;SDS011;30431;48.520;9.046;2023-06-22T12:19:23;13.88;;;6.20;;
44704;SDS011;30431;48.520;9.046;2023-06-22T12:21:52;15.85;;;6.13;;
44704;SDS011;30431;48.520;9.046;2023-06-22T12:24:21;11.38;;;6.30;;
44704;SDS011;30431;48.520;9.046;2023-06-22T12:26:50;9.00;;;5.72;;
44704;SDS011;30431;48.520;9.046;2023-06-22T12:29:21;9.80;;;5.78;;
44704;SDS011;30431;48.520;9.046;2023-06-22T12:31:49;14.75;;;6.85;;
44704;SDS011;30431;48.520;9.046;2023-06-22T12:34:18;13.25;;;6.43;;
44704;SDS011;30431;48.520;9.046;2023-06-22T12:36:47;13.77;;;7.68;;
44704;SDS011;30431;48.520;9.046;2023-06-22T12:39:15;12.85;;;6.25;;
44704;SDS011;30431;48.520;9.046;2023-06-22T12:41:44;13.68;;;6.38;;
44704;SDS011;30431;48.520;9.046;2023-06-22T12:44:13;12.00;;;6.35;;
44704;SDS011;30431;48.520;9.046;2023-06-22T12:46:43;13.45;;;6.18;;
44704;SDS011;30431;48.520;9.046;2023-06-22T12:49:10;15.85;;;6.20;;
44704;SDS011;30431;48.520;9.046;2023-06-22T12:51:39;13.80;;;6.75;;
44704;SDS011;30431;48.520;9.046;2023-06-22T12:54:08;13.20;;;5.85;;
44704;SDS011;30431;48.520;9.046;2023-06-22T12:56:36;11.68;;;6.40;;
44704;SDS011;30431;48.520;9.046;2023-06-22T12:59:04;11.73;;;5.93;;
44704;SDS011;30431;48.520;9.046;2023-06-22T13:01:33;14.38;;;5.68;;
44704;SDS011;30431;48.520;9.046;2023-06-22T13:04:00;12.75;;;6.18;;
44704;SDS011;30431;48.520;9.046;2023-06-22T13:06:32;10.13;;;5.70;;
44704;SDS011;30431;48.520;9.046;2023-06-22T13:08:59;13.60;;;6.05;;
44704;SDS011;30431;48.520;9.046;2023-06-22T13:11:30;15.73;;;6.20;;
44704;SDS011;30431;48.520;9.046;2023-06-22T13:13:57;12.77;;;6.20;;
44704;SDS011;30431;48.520;9.046;2023-06-22T13:16:24;10.52;;;6.53;;
44704;SDS011;30431;48.520;9.046;2023-06-22T13:18:51;13.77;;;5.80;;
44704;SDS011;30431;48.520;9.046;2023-06-22T13:21:19;14.45;;;5.80;;
44704;SDS011;30431;48.520;9.046;2023-06-22T13:23:47;17.65;;;10.50;;
44704;SDS011;30431;48.520;9.046;2023-06-22T13:26:14;21.48;;;10.35;;
44704;SDS011;30431;48.520;9.046;2023-06-22T13:28:43;12.27;;;5.82;;
44704;SDS011;30431;48.520;9.046;2023-06-22T13:31:11;10.52;;;5.93;;
44704;SDS011;30431;48.520;9.046;2023-06-22T13:33:40;12.55;;;5.13;;
44704;SDS011;30431;48.520;9.046;2023-06-22T13:36:07;17.27;;;6.05;;
44704;SDS011;30431;48.520;9.046;2023-06-22T13:38:35;14.13;;;5.85;;
44704;SDS011;30431;48.520;9.046;2023-06-22T13:41:05;16.67;;;6.30;;
44704;SDS011;30431;48.520;9.046;2023-06-22T13:43:34;14.65;;;5.90;;
44704;SDS011;30431;48.520;9.046;2023-06-22T13:46:01;13.02;;;6.30;;
44704;SDS011;30431;48.520;9.046;2023-06-22T13:48:28;11.48;;;6.03;;
44704;SDS011;30431;48.520;9.046;2023-06-22T13:50:55;10.90;;;5.93;;
44704;SDS011;30431;48.520;9.046;2023-06-22T13:53:27;14.73;;;6.75;;
44704;SDS011;30431;48.520;9.046;2023-06-22T13:55:56;12.45;;;6.28;;
44704;SDS011;30431;48.520;9.046;2023-06-22T13:58:24;12.25;;;6.00;;
44704;SDS011;30431;48.520;9.046;2023-06-22T14:00:53;18.35;;;6.72;;
44704;SDS011;30431;48.520;9.046;2023-06-22T14:03:22;12.98;;;6.03;;
44704;SDS011;30431;48.520;9.046;2023-06-22T14:05:54;18.10;;;11.77;;
44704;SDS011;30431;48.520;9.046;2023-06-22T14:08:24;13.50;;;6.57;;
44704;SDS011;30431;48.520;9.046;2023-06-22T14:11:09;13.18;;;8.55;;
44704;SDS011;30431;48.520;9.046;2023-06-22T14:13:36;13.80;;;6.88;;
44704;SDS011;30431;48.520;9.046;2023-06-22T14:16:08;16.10;;;6.13;;
44704;SDS011;30431;48.520;9.046;2023-06-22T14:18:40;12.35;;;6.38;;
44704;SDS011;30431;48.520;9.046;2023-06-22T14:21:10;12.35;;;5.82;;
44704;SDS011;30431;48.520;9.046;2023-06-22T14:23:40;11.25;;;5.80;;
44704;SDS011;30431;48.520;9.046;2023-06-22T14:26:07;21.65;;;6.60;;
44704;SDS011;30431;48.520;9.046;2023-06-22T14:28:34;12.77;;;6.10;;
44704;SDS011;30431;48.520;9.046;2023-06-22T14:31:03;17.63;;;6.00;;
44704;SDS011;30431;48.520;9.046;2023-06-22T14:33:33;11.10;;;6.05;;
44704;SDS011;30431;48.520;9.046;2023-06-22T14:36:00;17.83;;;6.97;;
44704;SDS011;30431;48.520;9.046;2023-06-22T14:38:27;14.23;;;6.35;;
44704;SDS011;30431;48.520;9.046;2023-06-22T14:40:56;15.20;;;6.40;;
44704;SDS011;30431;48.520;9.046;2023-06-22T14:43:42;11.93;;;5.50;;
44704;SDS011;30431;48.520;9.046;2023-06-22T14:46:15;15.27;;;6.38;;
44704;SDS011;30431;48.520;9.046;2023-06-22T14:48:44;12.85;;;5.90;;
44704;SDS011;30431;48.520;9.046;2023-06-22T14:51:11;11.82;;;5.43;;
44704;SDS011;30431;48.520;9.046;2023-06-22T14:53:43;20.35;;;5.60;;
44704;SDS011;30431;48.520;9.046;2023-06-22T14:56:13;11.80;;;4.78;;
44704;SDS011;30431;48.520;9.046;2023-06-22T14:58:42;14.15;;;4.72;;
44704;SDS011;30431;48.520;9.046;2023-06-22T15:01:13;14.15;;;5.07;;
44704;SDS011;30431;48.520;9.046;2023-06-22T15:03:41;12.27;;;4.22;;
44704;SDS011;30431;48.520;9.046;2023-06-22T15:06:08;12.80;;;4.40;;
44704;SDS011;30431;48.520;9.046;2023-06-22T15:08:39;33.08;;;5.28;;
44704;SDS011;30431;48.520;9.046;2023-06-22T15:11:07;10.65;;;4.70;;
44704;SDS011;30431;48.520;9.046;2023-06-22T15:13:34;10.68;;;4.00;;
44704;SDS011;30431;48.520;9.046;2023-06-22T15:16:04;17.63;;;4.75;;
44704;SDS011;30431;48.520;9.046;2023-06-22T15:18:32;11.55;;;4.30;;
44704;SDS011;30431;48.520;9.046;2023-06-22T15:21:04;12.55;;;4.55;;
44704;SDS011;30431;48.520;9.046;2023-06-22T15:23:34;18.48;;;5.40;;
44704;SDS011;30431;48.520;9.046;2023-06-22T15:26:01;10.98;;;4.07;;
44704;SDS011;30431;48.520;9.046;2023-06-22T15:28:31;15.27;;;4.18;;
44704;SDS011;30431;48.520;9.046;2023-06-22T15:31:03;17.15;;;4.03;;
44704;SDS011;30431;48.520;9.046;2023-06-22T15:33:32;9.52;;;3.80;;
44704;SDS011;30431;48.520;9.046;2023-06-22T15:35:59;9.52;;;3.80;;
44704;SDS011;30431;48.520;9.046;2023-06-22T15:38:31;11.73;;;4.03;;
44704;SDS011;30431;48.520;9.046;2023-06-22T15:40:59;10.68;;;3.83;;
44704;SDS011;30431;48.520;9.046;2023-06-22T15:43:29;12.27;;;4.15;;
44704;SDS011;30431;48.520;9.046;2023-06-22T15:45:57;14.07;;;4.25;;